createdAt,value
2022-10-11T00:00:31.451Z,20.60
2022-10-11T00:01:31.471Z,19.00
2022-10-11T00:02:31.407Z,18.20
2022-10-11T00:03:31.377Z,20.40
2022-10-11T00:04:31.385Z,23.10
2022-10-11T00:05:31.381Z,22.70
2022-10-11T00:06:31.356Z,17.80
2022-10-11T00:07:31.335Z,23.40
2022-10-11T00:08:31.338Z,22.10
2022-10-11T00:09:31.321Z,20.70
2022-10-11T00:10:31.315Z,21.30
2022-10-11T00:11:31.315Z,20.30
2022-10-11T00:12:31.297Z,19.80
2022-10-11T00:13:31.271Z,18.90
2022-10-11T00:14:31.269Z,20.80
2022-10-11T00:15:31.250Z,21.10
2022-10-11T00:16:31.280Z,22.50
2022-10-11T00:17:31.230Z,19.40
2022-10-11T00:18:31.231Z,19.20
2022-10-11T00:19:31.212Z,19.00
2022-10-11T00:20:31.218Z,17.60
2022-10-11T00:21:31.211Z,18.70
2022-10-11T00:22:31.184Z,15.20
2022-10-11T00:23:31.162Z,17.60
2022-10-11T00:24:31.179Z,17.50
2022-10-11T00:25:31.142Z,17.00
2022-10-11T00:26:31.143Z,21.00
2022-10-11T00:27:31.162Z,17.20
2022-10-11T00:28:31.244Z,17.10
2022-10-11T00:29:31.107Z,15.60
2022-10-11T00:30:31.105Z,15.90
2022-10-11T00:31:35.536Z,19.90
2022-10-11T00:32:31.104Z,20.30
2022-10-11T00:33:31.058Z,21.60
2022-10-11T00:34:31.084Z,22.00
2022-10-11T00:35:31.035Z,18.40
2022-10-11T00:36:31.038Z,24.20
2022-10-11T00:37:31.049Z,20.40
2022-10-11T00:38:32.049Z,19.80
2022-10-11T00:39:30.994Z,18.00
2022-10-11T00:40:30.999Z,18.30
2022-10-11T00:41:30.970Z,19.10
2022-10-11T00:42:30.981Z,20.20
2022-10-11T00:43:30.974Z,19.00
2022-10-11T00:44:30.958Z,19.40
2022-10-11T00:45:30.930Z,20.30
2022-10-11T00:46:30.939Z,19.20
2022-10-11T00:47:30.919Z,21.50
2022-10-11T00:48:30.942Z,19.00
2022-10-11T00:49:30.885Z,24.60
2022-10-11T00:50:30.893Z,21.10
2022-10-11T00:51:30.947Z,23.60
2022-10-11T00:52:30.875Z,19.90
2022-10-11T00:53:30.903Z,24.90
2022-10-11T00:54:30.848Z,24.50
2022-10-11T00:55:30.824Z,22.70
2022-10-11T00:56:30.827Z,16.50
2022-10-11T00:57:30.821Z,20.20
2022-10-11T00:58:30.804Z,19.80
2022-10-11T00:59:30.804Z,18.70
2022-10-11T01:00:30.789Z,20.30
2022-10-11T01:01:30.783Z,17.50
2022-10-11T01:02:30.763Z,19.80
2022-10-11T01:03:30.743Z,18.60
2022-10-11T01:04:30.763Z,17.10
2022-10-11T01:05:30.831Z,18.00
2022-10-11T01:06:30.718Z,15.70
2022-10-11T01:07:30.698Z,18.20
2022-10-11T01:08:30.713Z,15.40
2022-10-11T01:09:30.699Z,19.70
2022-10-11T01:10:30.678Z,20.30
2022-10-11T01:11:30.655Z,18.50
2022-10-11T01:12:30.657Z,18.30
2022-10-11T01:13:30.643Z,21.70
2022-10-11T01:14:30.643Z,21.80
2022-10-11T01:15:30.628Z,18.60
2022-10-11T01:16:30.611Z,22.00
2022-10-11T01:17:30.598Z,20.60
2022-10-11T01:18:30.594Z,22.10
2022-10-11T01:19:30.566Z,17.80
2022-10-11T01:20:30.600Z,22.00
2022-10-11T01:21:30.546Z,18.10
2022-10-11T01:22:30.547Z,18.40
2022-10-11T01:23:30.527Z,17.40
2022-10-11T01:24:30.532Z,20.90
2022-10-11T01:25:30.560Z,19.10
2022-10-11T01:26:30.513Z,22.80
2022-10-11T01:27:30.482Z,19.60
2022-10-11T01:28:30.535Z,21.20
2022-10-11T01:29:30.469Z,21.90
2022-10-11T01:30:30.466Z,21.20
2022-10-11T01:31:30.457Z,19.50
2022-10-11T01:32:30.447Z,20.90
2022-10-11T01:33:30.428Z,18.00
2022-10-11T01:34:30.424Z,20.00
2022-10-11T01:35:30.400Z,20.50
2022-10-11T01:36:30.430Z,19.00
2022-10-11T01:37:30.381Z,16.80
2022-10-11T01:38:30.393Z,19.50
2022-10-11T01:39:30.373Z,17.50
2022-10-11T01:40:30.365Z,17.60
2022-10-11T01:41:30.366Z,19.00
2022-10-11T01:42:30.349Z,18.30
2022-10-11T01:43:30.320Z,19.20
2022-10-11T01:44:30.318Z,20.30
2022-10-11T01:45:30.301Z,23.00
2022-10-11T01:46:30.288Z,25.80
2022-10-11T01:47:30.314Z,22.90
2022-10-11T01:48:30.312Z,21.60
2022-10-11T01:49:30.256Z,22.70
2022-10-11T01:50:30.255Z,21.50
2022-10-11T01:51:30.236Z,18.70
2022-10-11T01:52:30.259Z,20.60
2022-10-11T01:53:30.213Z,22.00
2022-10-11T01:54:49.811Z,23.30
2022-10-11T01:55:30.199Z,23.00
2022-10-11T01:56:30.200Z,18.00
2022-10-11T01:57:30.209Z,20.50
2022-10-11T01:58:30.169Z,20.30
2022-10-11T01:59:30.145Z,18.70
2022-10-11T02:00:30.149Z,19.00
2022-10-11T02:01:30.179Z,19.10
2022-10-11T02:02:30.128Z,21.00
2022-10-11T02:03:30.122Z,18.90
2022-10-11T02:04:30.124Z,16.30
2022-10-11T02:05:30.083Z,21.40
2022-10-11T02:06:30.084Z,20.40
2022-10-11T02:07:30.073Z,22.00
2022-10-11T02:08:30.090Z,20.80
2022-10-11T02:09:30.038Z,18.40
2022-10-11T02:10:30.043Z,19.10
2022-10-11T02:11:30.027Z,20.90
2022-10-11T02:12:30.019Z,21.80
2022-10-11T02:13:30.026Z,19.60
2022-10-11T02:14:29.999Z,19.80
2022-10-11T02:15:29.982Z,19.40
2022-10-11T02:16:29.978Z,22.40
2022-10-11T02:17:29.953Z,19.50
2022-10-11T02:18:29.956Z,20.70
2022-10-11T02:19:30.081Z,20.30
2022-10-11T02:20:29.945Z,19.20
2022-10-11T02:21:29.911Z,19.70
2022-10-11T02:22:29.924Z,16.70
2022-10-11T02:23:29.889Z,21.60
2022-10-11T02:24:29.923Z,19.70
2022-10-11T02:25:29.882Z,20.90
2022-10-11T02:26:29.876Z,18.40
2022-10-11T02:27:29.854Z,21.20
2022-10-11T02:28:29.923Z,21.70
2022-10-11T02:29:29.881Z,20.70
2022-10-11T02:30:29.836Z,21.70
2022-10-11T02:31:29.807Z,19.30
2022-10-11T02:32:29.812Z,20.10
2022-10-11T02:33:29.797Z,23.70
2022-10-11T02:34:29.790Z,21.80
2022-10-11T02:35:29.784Z,23.40
2022-10-11T02:36:29.782Z,22.40
2022-10-11T02:37:29.751Z,20.20
2022-10-11T02:38:29.756Z,19.30
2022-10-11T02:39:29.722Z,19.90
2022-10-11T02:40:29.748Z,21.00
2022-10-11T02:41:29.714Z,20.70
2022-10-11T02:42:29.712Z,19.10
2022-10-11T02:43:29.696Z,18.60
2022-10-11T02:44:29.692Z,21.10
2022-10-11T02:45:29.683Z,18.90
2022-10-11T02:46:29.662Z,21.70
2022-10-11T02:47:29.645Z,24.10
2022-10-11T02:48:29.643Z,20.70
2022-10-11T02:49:29.732Z,17.70
2022-10-11T02:50:29.616Z,20.50
2022-10-11T02:51:29.616Z,20.20
2022-10-11T02:52:29.607Z,21.50
2022-10-11T02:53:29.577Z,20.50
2022-10-11T02:54:29.577Z,22.00
2022-10-11T02:55:29.554Z,22.40
2022-10-11T02:56:29.572Z,23.40
2022-10-11T02:57:29.536Z,18.80
2022-10-11T02:58:29.543Z,24.60
2022-10-11T02:59:29.513Z,20.80
2022-10-11T03:00:29.511Z,21.30
2022-10-11T03:01:29.588Z,18.80
2022-10-11T03:02:29.491Z,20.00
2022-10-11T03:03:29.475Z,22.00
2022-10-11T03:04:29.470Z,18.30
2022-10-11T03:05:29.445Z,18.90
2022-10-11T03:06:29.448Z,20.00
2022-10-11T03:07:29.453Z,18.00
2022-10-11T03:08:29.426Z,21.00
2022-10-11T03:09:29.408Z,20.90
2022-10-11T03:10:29.411Z,21.10
2022-10-11T03:11:29.385Z,26.60
2022-10-11T03:12:29.413Z,20.80
2022-10-11T03:13:29.366Z,20.80
2022-10-11T03:14:29.372Z,21.20
2022-10-11T03:15:29.344Z,20.70
2022-10-11T03:16:29.344Z,21.40
2022-10-11T03:17:36.467Z,26.10
2022-10-11T03:18:29.332Z,20.70
2022-10-11T03:19:29.306Z,18.00
2022-10-11T03:20:29.303Z,17.90
2022-10-11T03:21:29.278Z,19.90
2022-10-11T03:22:29.287Z,19.80
2022-10-11T03:23:29.276Z,16.80
2022-10-11T03:24:29.262Z,18.80
2022-10-11T03:25:29.243Z,23.80
2022-10-11T03:26:29.251Z,20.50
2022-10-11T03:27:29.222Z,19.30
2022-10-11T03:28:29.296Z,21.30
2022-10-11T03:29:29.189Z,21.90
2022-10-11T03:30:29.199Z,24.90
2022-10-11T03:31:29.189Z,27.20
2022-10-11T03:32:29.162Z,26.30
2022-10-11T03:33:29.224Z,24.50
2022-10-11T03:34:29.141Z,19.20
2022-10-11T03:35:29.146Z,21.10
2022-10-11T03:36:29.141Z,22.70
2022-10-11T03:37:29.127Z,21.50
2022-10-11T03:38:29.099Z,20.10
2022-10-11T03:39:29.130Z,23.60
2022-10-11T03:40:29.093Z,22.50
2022-10-11T03:41:29.092Z,20.70
2022-10-11T03:42:29.120Z,21.70
2022-10-11T03:43:29.065Z,22.90
2022-10-11T03:44:29.080Z,23.00
2022-10-11T03:45:29.048Z,21.40
2022-10-11T03:46:29.023Z,20.40
2022-10-11T03:47:29.043Z,19.70
2022-10-11T03:48:28.994Z,22.60
2022-10-11T03:49:29.042Z,18.40
2022-10-11T03:50:28.978Z,20.50
2022-10-11T03:51:28.986Z,22.00
2022-10-11T03:52:28.958Z,21.70
2022-10-11T03:53:28.955Z,19.60
2022-10-11T03:54:28.941Z,20.50
2022-10-11T03:55:28.957Z,18.40
2022-10-11T03:56:28.908Z,20.30
2022-10-11T03:57:28.955Z,18.20
2022-10-11T03:58:28.899Z,21.00
2022-10-11T03:59:28.897Z,22.20
2022-10-11T04:00:28.887Z,18.40
2022-10-11T04:01:28.922Z,18.90
2022-10-11T04:02:28.848Z,19.00
2022-10-11T04:03:28.847Z,18.20
2022-10-11T04:04:28.830Z,23.30
2022-10-11T04:05:28.856Z,18.40
2022-10-11T04:06:28.802Z,19.80
2022-10-11T04:07:28.806Z,20.10
2022-10-11T04:08:28.783Z,22.50
2022-10-11T04:09:28.802Z,20.80
2022-10-11T04:10:28.761Z,21.10
2022-10-11T04:11:28.809Z,23.80
2022-10-11T04:12:28.735Z,22.40
2022-10-11T04:13:28.744Z,19.30
2022-10-11T04:14:28.729Z,18.60
2022-10-11T04:15:28.736Z,18.60
2022-10-11T04:16:28.740Z,19.30
2022-10-11T04:17:28.698Z,21.60
2022-10-11T04:18:28.673Z,22.50
2022-10-11T04:19:28.683Z,19.40
2022-10-11T04:20:28.656Z,21.30
2022-10-11T04:21:28.664Z,21.20
2022-10-11T04:22:28.679Z,19.10
2022-10-11T04:23:28.639Z,20.60
2022-10-11T04:24:28.636Z,20.40
2022-10-11T04:25:28.621Z,20.50
2022-10-11T04:26:28.598Z,19.90
2022-10-11T04:27:28.605Z,20.60
2022-10-11T04:28:28.673Z,20.60
2022-10-11T04:29:32.309Z,20.60
2022-10-11T04:30:28.573Z,19.60
2022-10-11T04:31:28.552Z,18.30
2022-10-11T04:32:28.532Z,21.80
2022-10-11T04:33:28.530Z,19.30
2022-10-11T04:34:28.538Z,17.60
2022-10-11T04:35:28.518Z,22.90
2022-10-11T04:36:28.498Z,20.90
2022-10-11T04:37:28.495Z,21.20
2022-10-11T04:38:28.458Z,20.40
2022-10-11T04:39:28.463Z,21.40
2022-10-11T04:40:28.471Z,22.30
2022-10-11T04:41:28.448Z,21.50
2022-10-11T04:42:28.427Z,18.80
2022-10-11T04:43:28.422Z,20.10
2022-10-11T04:44:28.398Z,21.20
2022-10-11T04:45:28.398Z,19.90
2022-10-11T04:46:28.403Z,22.90
2022-10-11T04:47:28.382Z,23.00
2022-10-11T04:48:28.354Z,20.80
2022-10-11T04:49:28.369Z,23.40
2022-10-11T04:50:28.332Z,25.00
2022-10-11T04:51:28.338Z,23.20
2022-10-11T04:52:28.340Z,23.20
2022-10-11T04:53:28.312Z,22.50
2022-10-11T04:54:28.292Z,24.90
2022-10-11T04:55:28.300Z,23.50
2022-10-11T04:56:28.266Z,20.10
2022-10-11T04:57:28.271Z,24.10
2022-10-11T04:58:28.278Z,21.90
2022-10-11T04:59:28.254Z,24.90
2022-10-11T05:00:28.226Z,23.40
2022-10-11T05:01:28.232Z,19.00
2022-10-11T05:02:28.325Z,21.60
2022-10-11T05:03:28.206Z,23.20
2022-10-11T05:04:28.211Z,22.90
2022-10-11T05:05:28.186Z,21.40
2022-10-11T05:06:28.166Z,24.60
2022-10-11T05:07:28.166Z,22.60
2022-10-11T05:08:28.144Z,19.80
2022-10-11T05:09:28.161Z,23.10
2022-10-11T05:10:28.145Z,24.10
2022-10-11T05:11:28.124Z,19.20
2022-10-11T05:12:28.097Z,22.50
2022-10-11T05:13:28.105Z,21.70
2022-10-11T05:14:28.076Z,22.40
2022-10-11T05:15:28.106Z,21.60
2022-10-11T05:16:28.064Z,23.60
2022-10-11T05:17:28.075Z,24.40
2022-10-11T05:18:28.035Z,26.50
2022-10-11T05:19:28.040Z,23.60
2022-10-11T05:20:28.018Z,24.20
2022-10-11T05:21:28.041Z,24.00
2022-10-11T05:22:27.999Z,21.80
2022-10-11T05:23:27.996Z,22.80
2022-10-11T05:24:27.977Z,21.30
2022-10-11T05:25:27.980Z,24.20
2022-10-11T05:26:27.984Z,23.20
2022-10-11T05:27:27.962Z,22.40
2022-10-11T05:28:27.975Z,23.20
2022-10-11T05:29:27.933Z,24.50
2022-10-11T05:30:27.925Z,23.90
2022-10-11T05:31:27.912Z,24.50
2022-10-11T05:32:28.266Z,20.80
2022-10-11T05:33:27.892Z,21.40
2022-10-11T05:34:27.865Z,21.10
2022-10-11T05:35:27.892Z,24.60
2022-10-11T05:36:27.869Z,25.70
2022-10-11T05:37:27.875Z,21.80
2022-10-11T05:38:27.825Z,24.40
2022-10-11T05:39:27.841Z,24.50
2022-10-11T05:40:27.892Z,23.00
2022-10-11T05:41:27.804Z,20.90
2022-10-11T05:42:27.807Z,21.60
2022-10-11T05:43:27.807Z,22.10
2022-10-11T05:44:27.795Z,22.40
2022-10-11T05:45:27.765Z,22.10
2022-10-11T05:46:27.738Z,22.50
2022-10-11T05:47:27.748Z,23.60
2022-10-11T05:48:27.748Z,24.50
2022-10-11T05:49:27.724Z,27.30
2022-10-11T05:50:27.711Z,23.80
2022-10-11T05:51:27.705Z,23.60
2022-10-11T05:52:27.681Z,25.10
2022-10-11T05:53:27.683Z,26.50
2022-10-11T05:54:27.682Z,21.50
2022-10-11T05:55:27.665Z,21.60
2022-10-11T05:56:27.634Z,26.30
2022-10-11T05:57:27.637Z,22.20
2022-10-11T05:58:27.615Z,22.20
2022-10-11T05:59:27.639Z,24.90
2022-10-11T06:00:27.593Z,24.50
2022-10-11T06:01:27.681Z,23.70
2022-10-11T06:02:27.573Z,23.20
2022-10-11T06:03:27.572Z,22.00
2022-10-11T06:04:27.551Z,25.50
2022-10-11T06:05:27.587Z,21.20
2022-10-11T06:06:27.533Z,21.40
2022-10-11T06:07:27.538Z,21.80
2022-10-11T06:08:27.518Z,20.60
2022-10-11T06:09:27.512Z,22.00
2022-10-11T06:10:27.532Z,22.90
2022-10-11T06:11:27.490Z,23.00
2022-10-11T06:12:27.469Z,21.70
2022-10-11T06:13:27.467Z,24.00
2022-10-11T06:14:27.446Z,25.20
2022-10-11T06:15:27.451Z,23.90
2022-10-11T06:16:27.448Z,24.90
2022-10-11T06:17:27.425Z,24.90
2022-10-11T06:18:27.403Z,25.50
2022-10-11T06:19:27.405Z,24.40
2022-10-11T06:20:27.446Z,24.30
2022-10-11T06:21:27.428Z,22.20
2022-10-11T06:22:27.365Z,24.70
2022-10-11T06:23:27.367Z,23.20
2022-10-11T06:24:27.359Z,26.00
2022-10-11T06:25:27.341Z,24.70
2022-10-11T06:26:27.318Z,23.10
2022-10-11T06:27:27.341Z,23.80
2022-10-11T06:28:27.373Z,25.30
2022-10-11T06:29:27.304Z,23.00
2022-10-11T06:30:27.380Z,23.90
2022-10-11T06:31:27.286Z,25.40
2022-10-11T06:32:27.277Z,24.40
2022-10-11T06:33:27.257Z,26.40
2022-10-11T06:34:27.238Z,25.20
2022-10-11T06:35:27.242Z,26.90
2022-10-11T06:36:27.220Z,31.40
2022-10-11T06:37:27.215Z,31.10
2022-10-11T06:38:27.220Z,29.00
2022-10-11T06:39:27.192Z,29.20
2022-10-11T06:40:27.250Z,28.30
2022-10-11T06:41:27.189Z,23.80
2022-10-11T06:42:27.149Z,25.70
2022-10-11T06:43:27.179Z,27.00
2022-10-11T06:44:27.131Z,25.60
2022-10-11T06:45:27.127Z,24.50
2022-10-11T06:46:27.112Z,25.60
2022-10-11T06:47:27.116Z,27.60
2022-10-11T06:48:27.084Z,30.00
2022-10-11T06:49:27.108Z,30.10
2022-10-11T06:50:47.538Z,29.80
2022-10-11T06:51:27.073Z,28.40
2022-10-11T06:52:27.046Z,29.40
2022-10-11T06:53:27.052Z,28.20
2022-10-11T06:54:27.053Z,30.30
2022-10-11T06:55:27.028Z,25.60
2022-10-11T06:56:27.002Z,25.40
2022-10-11T06:57:27.005Z,28.50
2022-10-11T06:58:26.999Z,29.30
2022-10-11T06:59:26.990Z,28.80
2022-10-11T07:00:26.979Z,29.20
2022-10-11T07:01:27.076Z,33.70
2022-10-11T07:02:26.938Z,39.50
2022-10-11T07:03:26.943Z,36.50
2022-10-11T07:04:26.916Z,33.30
2022-10-11T07:05:26.942Z,30.70
2022-10-11T07:06:26.897Z,34.70
2022-10-11T07:07:26.896Z,32.20
2022-10-11T07:08:26.877Z,31.80
2022-10-11T07:09:26.874Z,33.90
2022-10-11T07:10:26.852Z,28.00
2022-10-11T07:11:26.873Z,33.00
2022-10-11T07:12:26.838Z,32.30
2022-10-11T07:13:26.838Z,35.10
2022-10-11T07:14:26.811Z,29.60
2022-10-11T07:15:26.814Z,33.60
2022-10-11T07:16:26.817Z,32.20
2022-10-11T07:17:26.794Z,38.20
2022-10-11T07:18:26.766Z,36.70
2022-10-11T07:19:26.777Z,39.90
2022-10-11T07:20:26.744Z,35.40
2022-10-11T07:21:26.748Z,42.00
2022-10-11T07:22:26.747Z,37.50
2022-10-11T07:23:26.753Z,34.10
2022-10-11T07:24:26.705Z,36.20
2022-10-11T07:25:26.707Z,37.80
2022-10-11T07:26:26.706Z,37.10
2022-10-11T07:27:26.693Z,37.20
2022-10-11T07:28:26.860Z,35.30
2022-10-11T07:29:26.665Z,38.20
2022-10-11T07:30:26.642Z,35.30
2022-10-11T07:31:26.687Z,32.10
2022-10-11T07:32:26.617Z,32.00
2022-10-11T07:33:26.654Z,36.20
2022-10-11T07:34:26.602Z,34.40
2022-10-11T07:35:26.634Z,34.70
2022-10-11T07:36:26.743Z,33.50
2022-10-11T07:37:26.585Z,33.50
2022-10-11T07:38:26.562Z,33.50
2022-10-11T07:39:26.586Z,33.50
2022-10-11T07:40:26.544Z,37.10
2022-10-11T07:41:26.538Z,34.80
2022-10-11T07:42:26.515Z,37.60
2022-10-11T07:43:26.518Z,37.60
2022-10-11T07:44:26.520Z,34.50
2022-10-11T07:45:26.504Z,37.60
2022-10-11T07:46:26.475Z,35.00
2022-10-11T07:47:26.475Z,37.10
2022-10-11T07:48:26.464Z,36.00
2022-10-11T07:49:26.440Z,35.50
2022-10-11T07:50:26.461Z,36.10
2022-10-11T07:51:26.421Z,34.30
2022-10-11T07:52:26.422Z,34.30
2022-10-11T07:53:26.397Z,37.60
2022-10-11T07:54:26.401Z,34.20
2022-10-11T07:55:26.409Z,32.60
2022-10-11T07:56:26.385Z,34.50
2022-10-11T07:57:26.365Z,35.10
2022-10-11T07:58:26.359Z,34.30
2022-10-11T07:59:26.332Z,35.10
2022-10-11T08:00:26.335Z,32.20
2022-10-11T08:01:26.473Z,31.70
2022-10-11T08:02:26.315Z,34.60
2022-10-11T08:03:26.291Z,34.10
2022-10-11T08:04:26.293Z,35.70
2022-10-11T08:05:26.269Z,36.30
2022-10-11T08:06:26.299Z,39.40
2022-10-11T08:07:26.250Z,37.80
2022-10-11T08:08:26.350Z,34.30
2022-10-11T08:09:26.230Z,32.70
2022-10-11T08:10:26.234Z,37.20
2022-10-11T08:11:26.206Z,34.90
2022-10-11T08:12:26.245Z,39.00
2022-10-11T08:13:26.227Z,36.10
2022-10-11T08:14:26.198Z,37.10
2022-10-11T08:15:26.164Z,33.40
2022-10-11T08:16:26.162Z,38.90
2022-10-11T08:17:26.168Z,38.60
2022-10-11T08:18:26.150Z,37.20
2022-10-11T08:19:26.129Z,34.30
2022-10-11T08:20:26.129Z,37.00
2022-10-11T08:21:26.098Z,36.00
2022-10-11T08:22:26.104Z,36.70
2022-10-11T08:23:26.118Z,38.90
2022-10-11T08:24:26.079Z,41.40
2022-10-11T08:25:26.056Z,41.00
2022-10-11T08:26:26.064Z,38.00
2022-10-11T08:27:26.040Z,39.80
2022-10-11T08:28:26.116Z,40.60
2022-10-11T08:29:26.011Z,39.90
2022-10-11T08:30:26.045Z,40.00
2022-10-11T08:31:25.994Z,36.30
2022-10-11T08:32:25.998Z,39.00
2022-10-11T08:33:25.984Z,41.40
2022-10-11T08:34:25.993Z,39.70
2022-10-11T08:35:25.953Z,39.40
2022-10-11T08:36:25.953Z,35.90
2022-10-11T08:37:25.930Z,31.90
2022-10-11T08:38:25.934Z,33.50
2022-10-11T08:39:25.959Z,37.00
2022-10-11T08:40:25.911Z,34.70
2022-10-11T08:41:25.887Z,39.60
2022-10-11T08:42:25.899Z,37.50
2022-10-11T08:43:25.870Z,38.50
2022-10-11T08:44:25.921Z,33.80
2022-10-11T08:45:25.865Z,35.30
2022-10-11T08:46:25.865Z,40.40
2022-10-11T08:47:25.823Z,37.00
2022-10-11T08:48:25.879Z,33.50
2022-10-11T08:49:25.800Z,36.30
2022-10-11T08:50:25.882Z,36.00
2022-10-11T08:51:25.787Z,35.80
2022-10-11T08:52:25.785Z,36.50
2022-10-11T08:53:25.757Z,32.30
2022-10-11T08:54:25.764Z,36.80
2022-10-11T08:55:25.736Z,28.70
2022-10-11T08:56:25.766Z,32.50
2022-10-11T08:57:25.718Z,33.40
2022-10-11T08:58:25.717Z,28.40
2022-10-11T08:59:25.695Z,29.60
2022-10-11T09:00:25.700Z,32.10
2022-10-11T09:01:25.730Z,30.60
2022-10-11T09:02:25.683Z,30.40
2022-10-11T09:03:25.648Z,30.40
2022-10-11T09:04:25.654Z,30.30
2022-10-11T09:05:25.640Z,26.80
2022-10-11T09:06:25.638Z,24.70
2022-10-11T09:07:25.636Z,30.50
2022-10-11T09:08:25.614Z,27.70
2022-10-11T09:09:25.589Z,32.20
2022-10-11T09:10:25.593Z,31.70
2022-10-11T09:11:25.569Z,31.60
2022-10-11T09:12:30.877Z,30.80
2022-10-11T09:13:25.547Z,30.40
2022-10-11T09:14:25.555Z,30.20
2022-10-11T09:15:25.533Z,33.70
2022-10-11T09:16:25.528Z,29.40
2022-10-11T09:17:25.503Z,29.70
2022-10-11T09:18:25.528Z,29.20
2022-10-11T09:19:25.483Z,27.20
2022-10-11T09:20:25.488Z,29.40
2022-10-11T09:21:25.461Z,29.70
2022-10-11T09:22:29.631Z,27.90
2022-10-11T09:23:25.470Z,31.80
2022-10-11T09:24:25.448Z,27.80
2022-10-11T09:25:25.419Z,29.70
2022-10-11T09:26:25.423Z,28.20
2022-10-11T09:27:49.856Z,26.90
2022-10-11T09:28:25.447Z,28.80
2022-10-11T09:29:25.398Z,28.10
2022-10-11T09:30:25.385Z,28.70
2022-10-11T09:31:25.362Z,27.10
2022-10-11T09:32:25.356Z,26.60
2022-10-11T09:33:25.331Z,26.50
2022-10-11T09:34:25.367Z,28.20
2022-10-11T09:35:25.308Z,24.60
2022-10-11T09:36:25.311Z,24.10
2022-10-11T09:37:25.286Z,25.70
2022-10-11T09:38:25.293Z,26.90
2022-10-11T09:39:25.268Z,25.60
2022-10-11T09:40:25.289Z,26.60
2022-10-11T09:41:25.247Z,23.10
2022-10-11T09:42:25.248Z,25.30
2022-10-11T09:43:25.227Z,24.80
2022-10-11T09:44:25.243Z,26.60
2022-10-11T09:45:25.246Z,25.40
2022-10-11T09:46:25.203Z,23.70
2022-10-11T09:47:25.183Z,20.70
2022-10-11T09:48:25.200Z,23.30
2022-10-11T09:49:25.398Z,21.70
2022-10-11T09:50:25.164Z,21.60
2022-10-11T09:51:25.173Z,21.20
2022-10-11T09:52:25.139Z,18.50
2022-10-11T09:53:25.120Z,22.70
2022-10-11T09:54:25.119Z,22.70
2022-10-11T09:55:25.099Z,24.30
2022-10-11T09:56:25.117Z,22.80
2022-10-11T09:57:25.073Z,23.70
2022-10-11T09:58:25.079Z,24.60
2022-10-11T09:59:25.062Z,21.60
2022-10-11T10:00:25.053Z,21.40
2022-10-11T10:01:25.109Z,20.50
2022-10-11T10:02:25.053Z,21.90
2022-10-11T10:03:25.017Z,19.20
2022-10-11T10:04:25.019Z,19.20
2022-10-11T10:05:24.992Z,23.10
2022-10-11T10:06:24.987Z,24.90
2022-10-11T10:07:25.003Z,23.00
2022-10-11T10:08:24.968Z,20.30
2022-10-11T10:09:24.957Z,20.70
2022-10-11T10:10:24.960Z,21.60
2022-10-11T10:11:24.940Z,22.40
2022-10-11T10:12:24.927Z,19.90
2022-10-11T10:13:24.924Z,23.70
2022-10-11T10:14:24.900Z,22.10
2022-10-11T10:15:24.882Z,19.90
2022-10-11T10:16:24.881Z,20.50
2022-10-11T10:17:24.859Z,21.90
2022-10-11T10:18:24.889Z,23.90
2022-10-11T10:19:24.997Z,21.10
2022-10-11T10:20:25.908Z,20.40
2022-10-11T10:21:24.818Z,18.90
2022-10-11T10:22:24.818Z,20.10
2022-10-11T10:23:24.791Z,21.50
2022-10-11T10:24:24.818Z,20.70
2022-10-11T10:25:24.770Z,14.00
2022-10-11T10:26:24.773Z,19.20
2022-10-11T10:27:24.748Z,20.60
2022-10-11T10:28:24.854Z,18.40
2022-10-11T10:29:24.761Z,15.90
2022-10-11T10:30:24.749Z,18.90
2022-10-11T10:31:24.711Z,17.60
2022-10-11T10:32:24.710Z,14.60
2022-10-11T10:33:24.681Z,15.20
2022-10-11T10:34:24.687Z,17.20
2022-10-11T10:35:24.682Z,16.20
2022-10-11T10:36:24.670Z,18.90
2022-10-11T10:37:24.644Z,19.80
2022-10-11T10:38:26.679Z,17.00
2022-10-11T10:39:24.619Z,17.80
2022-10-11T10:40:24.661Z,18.20
2022-10-11T10:41:24.597Z,16.20
2022-10-11T10:42:24.598Z,17.30
2022-10-11T10:43:24.578Z,19.30
2022-10-11T10:44:24.579Z,16.10
2022-10-11T10:45:24.552Z,18.30
2022-10-11T10:46:24.584Z,19.00
2022-10-11T10:47:24.536Z,17.00
2022-10-11T10:48:24.547Z,17.20
2022-10-11T10:49:51.934Z,17.30
2022-10-11T10:50:24.517Z,17.60
2022-10-11T10:51:24.513Z,16.10
2022-10-11T10:52:24.491Z,15.10
2022-10-11T10:53:24.470Z,17.60
2022-10-11T10:54:24.476Z,15.80
2022-10-11T10:55:24.456Z,15.30
2022-10-11T10:56:24.475Z,15.90
2022-10-11T10:57:24.423Z,15.50
2022-10-11T10:58:24.431Z,17.00
2022-10-11T10:59:24.408Z,16.80
2022-10-11T11:00:24.410Z,15.30
2022-10-11T11:01:24.466Z,18.60
2022-10-11T11:02:41.266Z,17.60
2022-10-11T11:03:24.366Z,15.80
2022-10-11T11:04:24.377Z,16.40
2022-10-11T11:05:24.344Z,17.80
2022-10-11T11:06:24.349Z,14.70
2022-10-11T11:07:24.356Z,16.50
2022-10-11T11:08:24.326Z,16.00
2022-10-11T11:09:24.294Z,14.30
2022-10-11T11:10:24.302Z,14.20
2022-10-11T11:11:24.277Z,15.30
2022-10-11T11:12:24.281Z,13.90
2022-10-11T11:13:24.271Z,14.70
2022-10-11T11:14:24.253Z,15.50
2022-10-11T11:15:31.271Z,16.50
2022-10-11T11:16:24.243Z,16.00
2022-10-11T11:17:24.209Z,12.60
2022-10-11T11:18:24.247Z,15.00
2022-10-11T11:19:24.198Z,14.50
2022-10-11T11:20:24.189Z,14.90
2022-10-11T11:21:24.170Z,14.10
2022-10-11T11:22:24.172Z,15.20
2022-10-11T11:23:24.145Z,13.20
2022-10-11T11:24:24.176Z,11.50
2022-10-11T11:25:24.133Z,15.30
2022-10-11T11:26:24.128Z,16.30
2022-10-11T11:27:24.100Z,12.90
2022-10-11T11:28:24.164Z,14.00
2022-10-11T11:29:24.107Z,16.40
2022-10-11T11:30:24.084Z,14.90
2022-10-11T11:31:24.057Z,16.40
2022-10-11T11:32:24.060Z,15.20
2022-10-11T11:33:24.034Z,11.80
2022-10-11T11:34:24.041Z,15.80
2022-10-11T11:35:24.038Z,13.90
2022-10-11T11:36:24.017Z,11.30
2022-10-11T11:37:23.997Z,13.40
2022-10-11T11:38:29.256Z,13.10
2022-10-11T11:39:23.978Z,16.00
2022-10-11T11:40:24.020Z,13.00
2022-10-11T11:41:23.953Z,14.10
2022-10-11T11:42:23.960Z,14.10
2022-10-11T11:43:23.927Z,15.60
2022-10-11T11:44:27.481Z,12.40
2022-10-11T11:45:23.915Z,14.60
2022-10-11T11:46:23.936Z,13.00
2022-10-11T11:47:23.885Z,12.50
2022-10-11T11:48:23.893Z,10.70
2022-10-11T11:49:23.863Z,13.20
2022-10-11T11:50:23.869Z,12.30
2022-10-11T11:51:26.502Z,14.70
2022-10-11T11:52:23.850Z,14.00
2022-10-11T11:53:23.822Z,12.40
2022-10-11T11:54:23.824Z,15.60
2022-10-11T11:55:23.798Z,13.30
2022-10-11T11:56:23.810Z,16.80
2022-10-11T11:57:23.801Z,16.50
2022-10-11T11:58:23.781Z,14.40
2022-10-11T11:59:23.755Z,13.80
2022-10-11T12:00:23.760Z,16.70
2022-10-11T12:01:27.601Z,13.60
2022-10-11T12:02:23.858Z,12.80
2022-10-11T12:03:23.714Z,11.60
2022-10-11T12:04:23.707Z,11.30
2022-10-11T12:05:23.707Z,13.90
2022-10-11T12:06:23.682Z,12.90
2022-10-11T12:07:23.689Z,11.90
2022-10-11T12:08:23.684Z,13.30
2022-10-11T12:09:23.665Z,11.80
2022-10-11T12:10:23.642Z,13.20
2022-10-11T12:11:23.639Z,12.20
2022-10-11T12:12:23.614Z,14.80
2022-10-11T12:13:26.304Z,12.20
2022-10-11T12:14:23.595Z,16.90
2022-10-11T12:15:23.594Z,15.40
2022-10-11T12:16:23.571Z,14.20
2022-10-11T12:17:23.581Z,16.20
2022-10-11T12:18:23.554Z,12.90
2022-10-11T12:19:23.581Z,13.50
2022-10-11T12:20:23.562Z,13.50
2022-10-11T12:21:23.537Z,14.40
2022-10-11T12:22:23.514Z,12.90
2022-10-11T12:23:23.507Z,12.70
2022-10-11T12:24:23.515Z,13.30
2022-10-11T12:25:23.486Z,14.30
2022-10-11T12:26:23.461Z,13.60
2022-10-11T12:27:23.467Z,13.90
2022-10-11T12:28:23.536Z,14.80
2022-10-11T12:29:28.178Z,21.70
2022-10-11T12:30:23.448Z,18.10
2022-10-11T12:31:23.435Z,18.00
2022-10-11T12:32:23.399Z,21.10
2022-10-11T12:33:23.402Z,24.00
2022-10-11T12:34:23.379Z,18.10
2022-10-11T12:35:23.407Z,18.40
2022-10-11T12:36:23.355Z,15.00
2022-10-11T12:37:23.394Z,12.40
2022-10-11T12:38:23.337Z,11.50
2022-10-11T12:39:23.336Z,11.60
2022-10-11T12:40:23.312Z,14.70
2022-10-11T12:41:23.336Z,12.20
2022-10-11T12:42:23.293Z,12.60
2022-10-11T12:43:23.307Z,12.30
2022-10-11T12:44:23.288Z,12.80
2022-10-11T12:45:23.276Z,11.50
2022-10-11T12:46:23.273Z,13.20
2022-10-11T12:47:23.258Z,14.00
2022-10-11T12:48:23.235Z,14.90
2022-10-11T12:49:23.228Z,13.50
2022-10-11T12:50:23.206Z,12.70
2022-10-11T12:51:23.206Z,12.20
2022-10-11T12:52:23.204Z,12.90